sensor_id;sensor_type;location;lat;lon;timestamp;pressure;altitude;pressure_sealevel;temperature;humidity
18231;BME280;9240;49.966;21.994;2024-03-22T00:01:50;99172.81;;;5.43;80.35
18231;BME280;9240;49.966;21.994;2024-03-22T00:04:16;99164.09;;;5.46;80.33
18231;BME280;9240;49.966;21.994;2024-03-22T00:06:42;99157.06;;;5.48;80.69
18231;BME280;9240;49.966;21.994;2024-03-22T00:09:08;99153.66;;;5.47;80.63
18231;BME280;9240;49.966;21.994;2024-03-22T00:11:35;99140.75;;;5.47;80.50
18231;BME280;9240;49.966;21.994;2024-03-22T00:14:01;99127.81;;;5.47;80.50
18231;BME280;9240;49.966;21.994;2024-03-22T00:16:26;99118.41;;;5.46;80.43
18231;BME280;9240;49.966;21.994;2024-03-22T00:18:52;99130.31;;;5.49;80.54
18231;BME280;9240;49.966;21.994;2024-03-22T00:21:17;99121.66;;;5.50;80.51
18231;BME280;9240;49.966;21.994;2024-03-22T00:23:43;99116.41;;;5.52;80.37
18231;BME280;9240;49.966;21.994;2024-03-22T00:26:08;99099.16;;;5.52;80.32
18231;BME280;9240;49.966;21.994;2024-03-22T00:28:35;99108.75;;;5.50;80.36
18231;BME280;9240;49.966;21.994;2024-03-22T00:31:00;99107.00;;;5.51;80.61
18231;BME280;9240;49.966;21.994;2024-03-22T00:33:26;99103.66;;;5.49;80.39
18231;BME280;9240;49.966;21.994;2024-03-22T00:35:51;99100.22;;;5.48;80.43
18231;BME280;9240;49.966;21.994;2024-03-22T00:38:17;99105.41;;;5.48;80.58
18231;BME280;9240;49.966;21.994;2024-03-22T00:40:42;99111.41;;;5.49;80.61
18231;BME280;9240;49.966;21.994;2024-03-22T00:43:08;99103.56;;;5.50;80.48
18231;BME280;9240;49.966;21.994;2024-03-22T00:45:34;99100.06;;;5.51;80.66
18231;BME280;9240;49.966;21.994;2024-03-22T00:48:00;99093.22;;;5.50;80.76
18231;BME280;9240;49.966;21.994;2024-03-22T00:50:26;99096.72;;;5.49;80.66
18231;BME280;9240;49.966;21.994;2024-03-22T00:52:51;99093.34;;;5.49;80.65
18231;BME280;9240;49.966;21.994;2024-03-22T00:55:16;99095.00;;;5.50;80.78
18231;BME280;9240;49.966;21.994;2024-03-22T00:57:42;99088.91;;;5.51;80.71
18231;BME280;9240;49.966;21.994;2024-03-22T01:00:08;99092.31;;;5.51;80.84
18231;BME280;9240;49.966;21.994;2024-03-22T01:02:35;99081.16;;;5.51;80.68
18231;BME280;9240;49.966;21.994;2024-03-22T01:05:01;99084.56;;;5.51;81.03
18231;BME280;9240;49.966;21.994;2024-03-22T01:07:26;99082.84;;;5.52;81.07
18231;BME280;9240;49.966;21.994;2024-03-22T01:09:51;99070.84;;;5.51;81.08
18231;BME280;9240;49.966;21.994;2024-03-22T01:12:17;99070.00;;;5.50;80.93
18231;BME280;9240;49.966;21.994;2024-03-22T01:14:42;99070.00;;;5.50;80.86
18231;BME280;9240;49.966;21.994;2024-03-22T01:17:08;99070.91;;;5.49;80.70
18231;BME280;9240;49.966;21.994;2024-03-22T01:19:35;99067.50;;;5.49;80.73
18231;BME280;9240;49.966;21.994;2024-03-22T01:22:00;99062.41;;;5.47;80.59
18231;BME280;9240;49.966;21.994;2024-03-22T01:24:25;99071.91;;;5.46;80.86
18231;BME280;9240;49.966;21.994;2024-03-22T01:26:51;99063.34;;;5.46;80.74
18231;BME280;9240;49.966;21.994;2024-03-22T01:29:16;99054.75;;;5.45;80.69
18231;BME280;9240;49.966;21.994;2024-03-22T01:31:42;99049.50;;;5.47;80.99
18231;BME280;9240;49.966;21.994;2024-03-22T01:34:07;99050.34;;;5.47;80.99
18231;BME280;9240;49.966;21.994;2024-03-22T01:36:34;99041.56;;;5.50;80.87
18231;BME280;9240;49.966;21.994;2024-03-22T01:38:59;99033.75;;;5.52;80.59
18231;BME280;9240;49.966;21.994;2024-03-22T01:41:25;99022.41;;;5.54;80.65
18231;BME280;9240;49.966;21.994;2024-03-22T01:43:51;99025.84;;;5.55;80.76
18231;BME280;9240;49.966;21.994;2024-03-22T01:46:16;99030.81;;;5.58;80.82
18231;BME280;9240;49.966;21.994;2024-03-22T01:48:41;99024.56;;;5.62;80.61
18231;BME280;9240;49.966;21.994;2024-03-22T01:51:08;99026.25;;;5.63;80.67
18231;BME280;9240;49.966;21.994;2024-03-22T01:53:36;99019.34;;;5.64;80.80
18231;BME280;9240;49.966;21.994;2024-03-22T01:56:02;99026.13;;;5.65;80.73
18231;BME280;9240;49.966;21.994;2024-03-22T01:58:28;99031.41;;;5.63;80.79
18231;BME280;9240;49.966;21.994;2024-03-22T02:00:54;99033.16;;;5.62;80.98
18231;BME280;9240;49.966;21.994;2024-03-22T02:03:19;99040.22;;;5.59;81.25
18231;BME280;9240;49.966;21.994;2024-03-22T02:05:45;99034.25;;;5.58;81.19
18231;BME280;9240;49.966;21.994;2024-03-22T02:08:11;99032.41;;;5.60;81.27
18231;BME280;9240;49.966;21.994;2024-03-22T02:10:37;99034.91;;;5.62;81.25
18231;BME280;9240;49.966;21.994;2024-03-22T02:13:03;99030.50;;;5.64;81.52
18231;BME280;9240;49.966;21.994;2024-03-22T02:15:29;99033.81;;;5.66;81.59
18231;BME280;9240;49.966;21.994;2024-03-22T02:17:54;99037.97;;;5.69;81.38
18231;BME280;9240;49.966;21.994;2024-03-22T02:20:20;99037.06;;;5.70;81.66
18231;BME280;9240;49.966;21.994;2024-03-22T02:22:45;99040.66;;;5.67;81.70
18231;BME280;9240;49.966;21.994;2024-03-22T02:25:12;99042.38;;;5.67;81.96
18231;BME280;9240;49.966;21.994;2024-03-22T02:27:38;99042.66;;;5.62;81.88
18231;BME280;9240;49.966;21.994;2024-03-22T02:30:05;99047.06;;;5.60;82.03
18231;BME280;9240;49.966;21.994;2024-03-22T02:32:30;99044.47;;;5.60;81.80
18231;BME280;9240;49.966;21.994;2024-03-22T02:34:56;99037.50;;;5.62;82.04
18231;BME280;9240;49.966;21.994;2024-03-22T02:37:21;99033.88;;;5.65;81.89
18231;BME280;9240;49.966;21.994;2024-03-22T02:39:47;99038.88;;;5.68;81.88
18231;BME280;9240;49.966;21.994;2024-03-22T02:42:13;99032.75;;;5.70;81.88
18231;BME280;9240;49.966;21.994;2024-03-22T02:44:39;99036.78;;;5.74;82.03
18231;BME280;9240;49.966;21.994;2024-03-22T02:47:04;99042.72;;;5.76;81.94
18231;BME280;9240;49.966;21.994;2024-03-22T02:49:30;99034.88;;;5.78;82.10
18231;BME280;9240;49.966;21.994;2024-03-22T02:51:55;99035.63;;;5.80;82.17
18231;BME280;9240;49.966;21.994;2024-03-22T02:54:21;99037.28;;;5.81;82.05
18231;BME280;9240;49.966;21.994;2024-03-22T02:56:46;99031.19;;;5.82;82.49
18231;BME280;9240;49.966;21.994;2024-03-22T02:59:13;99026.78;;;5.84;82.50
18231;BME280;9240;49.966;21.994;2024-03-22T03:01:38;99029.28;;;5.86;82.34
18231;BME280;9240;49.966;21.994;2024-03-22T03:04:04;99031.69;;;5.89;82.42
18231;BME280;9240;49.966;21.994;2024-03-22T03:06:29;99029.13;;;5.89;82.28
18231;BME280;9240;49.966;21.994;2024-03-22T03:08:55;99025.69;;;5.88;82.10
18231;BME280;9240;49.966;21.994;2024-03-22T03:11:20;99030.84;;;5.88;82.06
18231;BME280;9240;49.966;21.994;2024-03-22T03:13:46;99032.63;;;5.88;82.20
18231;BME280;9240;49.966;21.994;2024-03-22T03:16:12;99041.03;;;5.91;82.49
18231;BME280;9240;49.966;21.994;2024-03-22T03:18:38;99051.53;;;5.88;82.22
18231;BME280;9240;49.966;21.994;2024-03-22T03:21:03;99040.44;;;5.86;82.31
18231;BME280;9240;49.966;21.994;2024-03-22T03:23:29;99041.19;;;5.88;82.38
18231;BME280;9240;49.966;21.994;2024-03-22T03:25:54;99018.78;;;5.89;82.44
18231;BME280;9240;49.966;21.994;2024-03-22T03:28:20;99029.84;;;5.91;82.44
18231;BME280;9240;49.966;21.994;2024-03-22T03:30:45;99036.13;;;5.87;82.59
18231;BME280;9240;49.966;21.994;2024-03-22T03:33:12;99028.44;;;5.85;82.68
18231;BME280;9240;49.966;21.994;2024-03-22T03:35:38;99035.28;;;5.86;82.53
18231;BME280;9240;49.966;21.994;2024-03-22T03:38:03;99036.94;;;5.87;82.61
18231;BME280;9240;49.966;21.994;2024-03-22T03:40:29;99033.44;;;5.88;82.52
18231;BME280;9240;49.966;21.994;2024-03-22T03:42:54;99046.25;;;5.90;82.67
18231;BME280;9240;49.966;21.994;2024-03-22T03:45:20;99029.13;;;5.89;82.83
18231;BME280;9240;49.966;21.994;2024-03-22T03:47:45;99019.50;;;5.91;82.88
18231;BME280;9240;49.966;21.994;2024-03-22T03:50:12;99030.69;;;5.91;82.68
18231;BME280;9240;49.966;21.994;2024-03-22T03:52:37;99037.59;;;5.91;82.88
18231;BME280;9240;49.966;21.994;2024-03-22T03:55:03;99023.75;;;5.92;82.90
18231;BME280;9240;49.966;21.994;2024-03-22T03:57:29;99032.34;;;5.92;82.95
18231;BME280;9240;49.966;21.994;2024-03-22T03:59:54;99022.00;;;5.92;83.27
18231;BME280;9240;49.966;21.994;2024-03-22T04:02:20;99027.84;;;5.96;83.47
18231;BME280;9240;49.966;21.994;2024-03-22T04:04:45;99022.59;;;5.98;82.99
18231;BME280;9240;49.966;21.994;2024-03-22T04:07:12;99029.41;;;5.99;83.46
18231;BME280;9240;49.966;21.994;2024-03-22T04:09:38;99020.00;;;5.98;83.56
18231;BME280;9240;49.966;21.994;2024-03-22T04:12:04;99023.41;;;5.98;83.84
18231;BME280;9240;49.966;21.994;2024-03-22T04:14:29;99019.16;;;5.97;83.41
18231;BME280;9240;49.966;21.994;2024-03-22T04:16:55;99014.16;;;5.94;84.02
18231;BME280;9240;49.966;21.994;2024-03-22T04:19:20;99020.19;;;5.95;83.99
18231;BME280;9240;49.966;21.994;2024-03-22T04:21:46;99021.09;;;5.93;83.99
18231;BME280;9240;49.966;21.994;2024-03-22T04:24:13;99018.50;;;5.93;84.05
18231;BME280;9240;49.966;21.994;2024-03-22T04:26:38;99016.84;;;5.92;84.25
18231;BME280;9240;49.966;21.994;2024-03-22T04:29:04;99013.25;;;5.95;83.97
18231;BME280;9240;49.966;21.994;2024-03-22T04:31:29;99018.34;;;5.97;84.04
18231;BME280;9240;49.966;21.994;2024-03-22T04:33:55;99019.06;;;5.99;83.94
18231;BME280;9240;49.966;21.994;2024-03-22T04:36:20;99012.06;;;6.01;84.04
18231;BME280;9240;49.966;21.994;2024-03-22T04:38:45;99018.00;;;6.03;83.84
18231;BME280;9240;49.966;21.994;2024-03-22T04:41:12;99014.41;;;6.05;83.83
18231;BME280;9240;49.966;21.994;2024-03-22T04:43:38;99013.41;;;6.08;83.99
18231;BME280;9240;49.966;21.994;2024-03-22T04:46:03;99018.41;;;6.11;83.79
18231;BME280;9240;49.966;21.994;2024-03-22T04:48:29;99024.31;;;6.13;83.62
18231;BME280;9240;49.966;21.994;2024-03-22T04:50:54;99015.53;;;6.16;83.54
18231;BME280;9240;49.966;21.994;2024-03-22T04:53:20;99020.44;;;6.20;83.51
18231;BME280;9240;49.966;21.994;2024-03-22T04:55:46;99019.34;;;6.25;83.60
18231;BME280;9240;49.966;21.994;2024-03-22T04:58:14;99022.50;;;6.30;83.02
18231;BME280;9240;49.966;21.994;2024-03-22T05:00:41;99015.28;;;6.35;82.93
18231;BME280;9240;49.966;21.994;2024-03-22T05:03:06;99020.28;;;6.38;82.86
18231;BME280;9240;49.966;21.994;2024-03-22T05:05:32;99018.25;;;6.43;82.52
18231;BME280;9240;49.966;21.994;2024-03-22T05:07:57;99023.25;;;6.46;82.74
18231;BME280;9240;49.966;21.994;2024-03-22T05:10:23;99019.53;;;6.50;82.46
18231;BME280;9240;49.966;21.994;2024-03-22T05:12:48;99024.47;;;6.55;82.29
18231;BME280;9240;49.966;21.994;2024-03-22T05:15:15;99021.50;;;6.61;82.01
18231;BME280;9240;49.966;21.994;2024-03-22T05:17:40;99030.63;;;6.67;81.57
18231;BME280;9240;49.966;21.994;2024-03-22T05:20:07;99032.03;;;6.73;81.52
18231;BME280;9240;49.966;21.994;2024-03-22T05:22:32;99031.66;;;6.79;81.19
18231;BME280;9240;49.966;21.994;2024-03-22T05:24:58;99031.38;;;6.83;80.79
18231;BME280;9240;49.966;21.994;2024-03-22T05:27:23;99034.53;;;6.89;80.53
18231;BME280;9240;49.966;21.994;2024-03-22T05:29:48;99035.91;;;6.94;80.26
18231;BME280;9240;49.966;21.994;2024-03-22T05:32:15;99037.38;;;6.98;80.12
18231;BME280;9240;49.966;21.994;2024-03-22T05:34:41;99041.34;;;7.04;80.22
18231;BME280;9240;49.966;21.994;2024-03-22T05:37:06;99037.53;;;7.10;79.53
18231;BME280;9240;49.966;21.994;2024-03-22T05:39:31;99045.13;;;7.13;79.49
18231;BME280;9240;49.966;21.994;2024-03-22T05:41:57;99044.84;;;7.18;79.59
18231;BME280;9240;49.966;21.994;2024-03-22T05:44:23;99045.56;;;7.20;79.54
18231;BME280;9240;49.966;21.994;2024-03-22T05:46:49;99054.94;;;7.22;79.04
18231;BME280;9240;49.966;21.994;2024-03-22T05:49:16;99053.91;;;7.25;78.69
18231;BME280;9240;49.966;21.994;2024-03-22T05:51:41;99066.75;;;7.26;78.55
18231;BME280;9240;49.966;21.994;2024-03-22T05:54:07;99067.59;;;7.27;78.69
18231;BME280;9240;49.966;21.994;2024-03-22T05:56:32;99060.75;;;7.26;79.36
18231;BME280;9240;49.966;21.994;2024-03-22T05:58:58;99065.09;;;7.25;79.23
18231;BME280;9240;49.966;21.994;2024-03-22T06:01:23;99059.38;;;7.20;79.77
18231;BME280;9240;49.966;21.994;2024-03-22T06:03:48;99065.47;;;7.19;79.91
18231;BME280;9240;49.966;21.994;2024-03-22T06:06:15;99065.47;;;7.19;80.25
18231;BME280;9240;49.966;21.994;2024-03-22T06:08:41;99071.56;;;7.18;80.50
18231;BME280;9240;49.966;21.994;2024-03-22T06:11:07;99073.31;;;7.18;80.52
18231;BME280;9240;49.966;21.994;2024-03-22T06:13:32;99071.56;;;7.18;80.82
18231;BME280;9240;49.966;21.994;2024-03-22T06:15:58;99071.41;;;7.21;80.94
18231;BME280;9240;49.966;21.994;2024-03-22T06:18:23;99070.47;;;7.22;80.96
18231;BME280;9240;49.966;21.994;2024-03-22T06:20:49;99071.09;;;7.26;81.15
18231;BME280;9240;49.966;21.994;2024-03-22T06:23:15;99074.31;;;7.29;81.43
18231;BME280;9240;49.966;21.994;2024-03-22T06:25:41;99080.06;;;7.35;81.06
18231;BME280;9240;49.966;21.994;2024-03-22T06:28:06;99081.53;;;7.39;81.02
18231;BME280;9240;49.966;21.994;2024-03-22T06:30:32;99075.31;;;7.41;81.03
18231;BME280;9240;49.966;21.994;2024-03-22T06:32:57;99077.81;;;7.43;81.29
18231;BME280;9240;49.966;21.994;2024-03-22T06:35:26;99085.41;;;7.46;81.20
18231;BME280;9240;49.966;21.994;2024-03-22T06:37:51;99094.75;;;7.49;81.64
18231;BME280;9240;49.966;21.994;2024-03-22T06:40:18;99093.84;;;7.50;81.38
18231;BME280;9240;49.966;21.994;2024-03-22T06:42:43;99094.47;;;7.53;81.70
18231;BME280;9240;49.966;21.994;2024-03-22T06:45:09;99093.13;;;7.60;81.53
18231;BME280;9240;49.966;21.994;2024-03-22T06:47:35;99097.94;;;7.67;81.39
18231;BME280;9240;49.966;21.994;2024-03-22T06:50:00;99096.81;;;7.71;81.52
18231;BME280;9240;49.966;21.994;2024-03-22T06:52:26;99095.59;;;7.77;81.14
18231;BME280;9240;49.966;21.994;2024-03-22T06:54:51;99098.75;;;7.82;81.26
18231;BME280;9240;49.966;21.994;2024-03-22T06:57:18;99095.00;;;7.86;81.11
18231;BME280;9240;49.966;21.994;2024-03-22T06:59:44;99087.88;;;7.89;81.33
18231;BME280;9240;49.966;21.994;2024-03-22T07:02:09;99092.88;;;7.93;80.92
18231;BME280;9240;49.966;21.994;2024-03-22T07:04:35;99090.97;;;7.95;81.02
18231;BME280;9240;49.966;21.994;2024-03-22T07:07:00;99094.97;;;8.00;81.68
18231;BME280;9240;49.966;21.994;2024-03-22T07:09:26;99094.47;;;8.08;81.60
18231;BME280;9240;49.966;21.994;2024-03-22T07:11:51;99089.78;;;8.13;81.27
18231;BME280;9240;49.966;21.994;2024-03-22T07:14:18;99089.28;;;8.21;81.23
18231;BME280;9240;49.966;21.994;2024-03-22T07:16:44;99093.88;;;8.30;81.27
18231;BME280;9240;49.966;21.994;2024-03-22T07:19:09;99095.13;;;8.38;81.59
18231;BME280;9240;49.966;21.994;2024-03-22T07:21:35;99095.59;;;8.44;81.69
18231;BME280;9240;49.966;21.994;2024-03-22T07:24:00;99097.13;;;8.47;81.59
18231;BME280;9240;49.966;21.994;2024-03-22T07:26:26;99090.84;;;8.51;81.74
18231;BME280;9240;49.966;21.994;2024-03-22T07:28:51;99084.50;;;8.55;81.55
18231;BME280;9240;49.966;21.994;2024-03-22T07:31:18;99089.47;;;8.58;81.94
18231;BME280;9240;49.966;21.994;2024-03-22T07:33:44;99083.28;;;8.61;82.00
18231;BME280;9240;49.966;21.994;2024-03-22T07:36:09;99076.91;;;8.65;82.36
18231;BME280;9240;49.966;21.994;2024-03-22T07:38:34;99068.94;;;8.68;82.21
18231;BME280;9240;49.966;21.994;2024-03-22T07:41:00;99065.91;;;8.74;82.28
18231;BME280;9240;49.966;21.994;2024-03-22T07:43:25;99072.34;;;8.81;82.18
18231;BME280;9240;49.966;21.994;2024-03-22T07:45:51;99076.19;;;8.89;82.05
18231;BME280;9240;49.966;21.994;2024-03-22T07:48:18;99078.25;;;8.96;82.23
18231;BME280;9240;49.966;21.994;2024-03-22T07:50:43;99078.56;;;9.05;82.22
18231;BME280;9240;49.966;21.994;2024-03-22T07:53:09;99078.66;;;9.16;81.93
18231;BME280;9240;49.966;21.994;2024-03-22T07:55:34;99078.00;;;9.25;82.16
18231;BME280;9240;49.966;21.994;2024-03-22T07:58:00;99077.16;;;9.38;82.11
18231;BME280;9240;49.966;21.994;2024-03-22T08:00:25;99072.28;;;9.57;81.93
18231;BME280;9240;49.966;21.994;2024-03-22T08:02:51;99078.09;;;9.85;81.62
18231;BME280;9240;49.966;21.994;2024-03-22T08:05:17;99069.94;;;10.14;81.12
18231;BME280;9240;49.966;21.994;2024-03-22T08:07:43;99064.91;;;10.36;80.75
18231;BME280;9240;49.966;21.994;2024-03-22T08:10:09;99061.16;;;10.51;80.36
18231;BME280;9240;49.966;21.994;2024-03-22T08:12:34;99064.03;;;10.71;80.02
18231;BME280;9240;49.966;21.994;2024-03-22T08:15:00;99059.78;;;10.92;79.71
18231;BME280;9240;49.966;21.994;2024-03-22T08:17:25;99062.75;;;11.22;79.22
18231;BME280;9240;49.966;21.994;2024-03-22T08:19:51;99056.75;;;11.54;78.34
18231;BME280;9240;49.966;21.994;2024-03-22T08:22:19;99062.47;;;11.80;77.83
18231;BME280;9240;49.966;21.994;2024-03-22T08:24:46;99058.72;;;12.06;77.21
18231;BME280;9240;49.966;21.994;2024-03-22T08:27:11;99063.94;;;12.27;76.50
18231;BME280;9240;49.966;21.994;2024-03-22T08:29:37;99066.81;;;12.45;75.79
18231;BME280;9240;49.966;21.994;2024-03-22T08:32:03;99070.09;;;12.68;74.91
18231;BME280;9240;49.966;21.994;2024-03-22T08:34:29;99064.13;;;12.87;74.53
18231;BME280;9240;49.966;21.994;2024-03-22T08:36:54;99061.56;;;12.97;74.20
18231;BME280;9240;49.966;21.994;2024-03-22T08:39:21;99069.97;;;13.01;73.60
18231;BME280;9240;49.966;21.994;2024-03-22T08:41:47;99067.94;;;13.04;73.37
18231;BME280;9240;49.966;21.994;2024-03-22T08:44:12;99076.06;;;13.11;72.91
18231;BME280;9240;49.966;21.994;2024-03-22T08:46:38;99066.16;;;13.15;72.65
18231;BME280;9240;49.966;21.994;2024-03-22T08:49:03;99070.53;;;13.04;72.22
18231;BME280;9240;49.966;21.994;2024-03-22T08:51:29;99070.22;;;12.88;72.38
18231;BME280;9240;49.966;21.994;2024-03-22T08:53:54;99073.13;;;12.73;72.18
18231;BME280;9240;49.966;21.994;2024-03-22T08:56:21;99064.84;;;12.58;72.52
18231;BME280;9240;49.966;21.994;2024-03-22T08:58:47;99069.44;;;12.45;72.67
18231;BME280;9240;49.966;21.994;2024-03-22T09:01:12;99062.75;;;12.31;72.80
18231;BME280;9240;49.966;21.994;2024-03-22T09:03:41;99064.19;;;12.24;72.90
18231;BME280;9240;49.966;21.994;2024-03-22T09:06:06;99066.38;;;12.19;72.93
18231;BME280;9240;49.966;21.994;2024-03-22T09:08:32;99067.56;;;12.14;72.98
18231;BME280;9240;49.966;21.994;2024-03-22T09:10:57;99065.22;;;12.11;72.88
18231;BME280;9240;49.966;21.994;2024-03-22T09:13:24;99063.44;;;12.12;73.15
18231;BME280;9240;49.966;21.994;2024-03-22T09:15:56;99057.25;;;12.13;73.04
18231;BME280;9240;49.966;21.994;2024-03-22T09:18:21;99051.06;;;12.14;72.96
18231;BME280;9240;49.966;21.994;2024-03-22T09:20:47;99049.47;;;12.23;72.94
18231;BME280;9240;49.966;21.994;2024-03-22T09:23:12;99044.78;;;12.38;72.83
18231;BME280;9240;49.966;21.994;2024-03-22T09:25:38;99057.75;;;12.49;72.84
18231;BME280;9240;49.966;21.994;2024-03-22T09:28:04;99054.63;;;12.55;72.77
18231;BME280;9240;49.966;21.994;2024-03-22T09:30:31;99046.16;;;12.63;72.53
18231;BME280;9240;49.966;21.994;2024-03-22T09:32:56;99045.06;;;12.66;72.57
18231;BME280;9240;49.966;21.994;2024-03-22T09:35:22;99043.34;;;12.76;72.43
18231;BME280;9240;49.966;21.994;2024-03-22T09:37:48;99040.75;;;12.86;72.19
18231;BME280;9240;49.966;21.994;2024-03-22T09:40:13;99048.34;;;12.99;71.86
18231;BME280;9240;49.966;21.994;2024-03-22T09:42:41;99053.50;;;13.10;71.66
18231;BME280;9240;49.966;21.994;2024-03-22T09:45:08;99055.19;;;13.21;71.13
18231;BME280;9240;49.966;21.994;2024-03-22T09:47:36;99052.31;;;13.34;70.78
18231;BME280;9240;49.966;21.994;2024-03-22T09:50:03;99047.72;;;13.47;70.79
18231;BME280;9240;49.966;21.994;2024-03-22T09:52:29;99048.00;;;13.64;70.44
18231;BME280;9240;49.966;21.994;2024-03-22T09:54:56;99047.31;;;13.81;69.97
18231;BME280;9240;49.966;21.994;2024-03-22T09:57:22;99048.13;;;13.92;69.42
18231;BME280;9240;49.966;21.994;2024-03-22T09:59:49;99048.28;;;14.00;69.11
18231;BME280;9240;49.966;21.994;2024-03-22T10:02:15;99045.78;;;14.08;68.79
18231;BME280;9240;49.966;21.994;2024-03-22T10:04:43;99034.59;;;14.16;68.61
18231;BME280;9240;49.966;21.994;2024-03-22T10:07:08;99041.75;;;14.24;68.47
18231;BME280;9240;49.966;21.994;2024-03-22T10:09:34;99038.31;;;14.23;68.32
18231;BME280;9240;49.966;21.994;2024-03-22T10:11:59;99040.38;;;14.20;68.11
18231;BME280;9240;49.966;21.994;2024-03-22T10:14:25;99044.66;;;14.21;68.11
18231;BME280;9240;49.966;21.994;2024-03-22T10:16:51;99043.56;;;14.23;68.06
18231;BME280;9240;49.966;21.994;2024-03-22T10:19:17;99027.69;;;14.25;67.97
18231;BME280;9240;49.966;21.994;2024-03-22T10:21:43;99029.06;;;14.39;67.59
18231;BME280;9240;49.966;21.994;2024-03-22T10:24:09;99026.53;;;14.47;67.30
18231;BME280;9240;49.966;21.994;2024-03-22T10:26:35;99027.47;;;14.56;67.17
18231;BME280;9240;49.966;21.994;2024-03-22T10:29:01;99027.63;;;14.54;66.90
18231;BME280;9240;49.966;21.994;2024-03-22T10:31:30;99028.44;;;14.55;66.78
18231;BME280;9240;49.966;21.994;2024-03-22T10:33:56;99022.13;;;14.57;66.73
18231;BME280;9240;49.966;21.994;2024-03-22T10:36:24;99021.41;;;14.65;66.20
18231;BME280;9240;49.966;21.994;2024-03-22T10:38:52;99014.78;;;14.71;66.15
18231;BME280;9240;49.966;21.994;2024-03-22T10:41:19;99015.19;;;14.76;66.17
18231;BME280;9240;49.966;21.994;2024-03-22T10:43:44;99012.84;;;14.73;66.12
18231;BME280;9240;49.966;21.994;2024-03-22T10:46:10;99013.53;;;14.75;66.11
18231;BME280;9240;49.966;21.994;2024-03-22T10:48:36;99012.84;;;14.73;66.00
18231;BME280;9240;49.966;21.994;2024-03-22T10:51:03;99016.16;;;14.65;65.92
18231;BME280;9240;49.966;21.994;2024-03-22T10:53:31;99009.69;;;14.60;65.71
18231;BME280;9240;49.966;21.994;2024-03-22T10:56:00;99009.03;;;14.48;65.69
18231;BME280;9240;49.966;21.994;2024-03-22T10:58:26;99004.38;;;14.32;65.75
18231;BME280;9240;49.966;21.994;2024-03-22T11:00:52;99005.13;;;14.14;65.94
18231;BME280;9240;49.966;21.994;2024-03-22T11:03:19;99005.28;;;14.03;66.14
18231;BME280;9240;49.966;21.994;2024-03-22T11:05:45;99002.13;;;13.89;66.35
18231;BME280;9240;49.966;21.994;2024-03-22T11:08:11;98987.41;;;13.78;66.52
18231;BME280;9240;49.966;21.994;2024-03-22T11:10:37;98993.06;;;13.74;66.56
18231;BME280;9240;49.966;21.994;2024-03-22T11:13:04;98990.44;;;13.74;66.70
18231;BME280;9240;49.966;21.994;2024-03-22T11:15:30;98988.22;;;13.79;66.75
18231;BME280;9240;49.966;21.994;2024-03-22T11:17:56;98982.41;;;13.95;66.49
18231;BME280;9240;49.966;21.994;2024-03-22T11:20:22;98978.25;;;14.12;66.17
18231;BME280;9240;49.966;21.994;2024-03-22T11:22:47;98980.28;;;14.28;65.49
18231;BME280;9240;49.966;21.994;2024-03-22T11:25:13;98970.47;;;14.40;65.00
18231;BME280;9240;49.966;21.994;2024-03-22T11:27:38;98969.47;;;14.51;64.84
18231;BME280;9240;49.966;21.994;2024-03-22T11:30:07;98964.44;;;14.67;64.75
18231;BME280;9240;49.966;21.994;2024-03-22T11:32:33;98959.97;;;14.78;64.57
18231;BME280;9240;49.966;21.994;2024-03-22T11:34:59;98957.06;;;14.81;64.28
18231;BME280;9240;49.966;21.994;2024-03-22T11:37:24;98957.44;;;14.86;64.01
18231;BME280;9240;49.966;21.994;2024-03-22T11:39:50;98949.41;;;14.97;63.93
18231;BME280;9240;49.966;21.994;2024-03-22T11:42:16;98942.81;;;15.11;63.56
18231;BME280;9240;49.966;21.994;2024-03-22T11:44:42;98951.28;;;15.23;63.24
18231;BME280;9240;49.966;21.994;2024-03-22T11:47:10;98940.50;;;15.26;62.90
18231;BME280;9240;49.966;21.994;2024-03-22T11:49:35;98936.75;;;15.29;62.62
18231;BME280;9240;49.966;21.994;2024-03-22T11:52:01;98942.38;;;15.34;62.35
18231;BME280;9240;49.966;21.994;2024-03-22T11:54:27;98938.25;;;15.31;62.13
18231;BME280;9240;49.966;21.994;2024-03-22T11:56:55;98933.13;;;15.30;62.06
18231;BME280;9240;49.966;21.994;2024-03-22T11:59:20;98930.09;;;15.35;61.86
18231;BME280;9240;49.966;21.994;2024-03-22T12:01:46;98925.13;;;15.31;61.81
18231;BME280;9240;49.966;21.994;2024-03-22T12:04:13;98927.47;;;15.35;61.54
18231;BME280;9240;49.966;21.994;2024-03-22T12:06:41;98918.47;;;15.37;61.51
18231;BME280;9240;49.966;21.994;2024-03-22T12:09:06;98924.09;;;15.42;61.53
18231;BME280;9240;49.966;21.994;2024-03-22T12:11:32;98920.41;;;15.35;61.49
18231;BME280;9240;49.966;21.994;2024-03-22T12:13:57;98917.28;;;15.31;61.49
18231;BME280;9240;49.966;21.994;2024-03-22T12:16:22;98915.84;;;15.37;61.39
18231;BME280;9240;49.966;21.994;2024-03-22T12:18:48;98908.34;;;15.42;61.36
18231;BME280;9240;49.966;21.994;2024-03-22T12:21:15;98916.72;;;15.46;60.97
18231;BME280;9240;49.966;21.994;2024-03-22T12:23:40;98912.53;;;15.53;60.95
18231;BME280;9240;49.966;21.994;2024-03-22T12:26:06;98907.81;;;15.57;60.55
18231;BME280;9240;49.966;21.994;2024-03-22T12:28:32;98916.66;;;15.56;60.51
18231;BME280;9240;49.966;21.994;2024-03-22T12:30:57;98911.69;;;15.53;60.00
18231;BME280;9240;49.966;21.994;2024-03-22T12:33:23;98907.13;;;15.55;59.76
18231;BME280;9240;49.966;21.994;2024-03-22T12:35:48;98903.38;;;15.57;59.63
18231;BME280;9240;49.966;21.994;2024-03-22T12:38:15;98896.03;;;15.61;59.52
18231;BME280;9240;49.966;21.994;2024-03-22T12:40:41;98894.81;;;15.55;59.10
18231;BME280;9240;49.966;21.994;2024-03-22T12:43:09;98891.69;;;15.52;58.94
18231;BME280;9240;49.966;21.994;2024-03-22T12:45:34;98892.19;;;15.55;58.85
18231;BME280;9240;49.966;21.994;2024-03-22T12:48:00;98889.28;;;15.58;58.90
18231;BME280;9240;49.966;21.994;2024-03-22T12:50:26;98885.75;;;15.50;58.98
18231;BME280;9240;49.966;21.994;2024-03-22T12:52:51;98880.94;;;15.37;59.42
18231;BME280;9240;49.966;21.994;2024-03-22T12:55:18;98881.00;;;15.27;59.43
18231;BME280;9240;49.966;21.994;2024-03-22T12:57:43;98881.44;;;15.22;59.87
18231;BME280;9240;49.966;21.994;2024-03-22T13:00:10;98883.31;;;15.12;60.17